Time;durP1;ratioP1;P1;durP2;ratioP2;P2;SDS_P1;SDS_P2;PMS_P1;PMS_P2;Temp;Humidity;BMP_temperature;BMP_pressure;BME280_temperature;BME280_humidity;BME280_pressure;Samples;Min_cycle;Max_cycle;Signal;HPM_P1;HPM_P2
2023/04/08 00:00:19;;;;;;;9.13;5.80;;;;;;;;;;5282869;28;20039;-73
2023/04/08 00:02:50;;;;;;;10.32;6.28;;;;;;;;;;5282266;28;20478;-73
2023/04/08 00:05:22;;;;;;;10.50;5.80;;;;;;;;;;5282383;28;20463;-73
2023/04/08 00:07:53;;;;;;;9.20;5.45;;;;;;;;;;5282196;28;20078;-74
2023/04/08 00:10:25;;;;;;;12.38;6.57;;;;;;;;;;5282216;28;20024;-73
2023/04/08 00:12:56;;;;;;;13.07;6.53;;;;;;;;;;5282289;28;20016;-73
2023/04/08 00:15:27;;;;;;;9.40;6.10;;;;;;;;;;5282760;28;20077;-73
2023/04/08 00:17:58;;;;;;;10.63;6.13;;;;;;;;;;5281292;28;20025;-73
2023/04/08 00:20:30;;;;;;;12.32;7.05;;;;;;;;;;5282142;28;20175;-72
2023/04/08 00:23:01;;;;;;;14.23;7.47;;;;;;;;;;5282025;28;20556;-72
2023/04/08 00:25:32;;;;;;;12.15;6.85;;;;;;;;;;5281444;28;20070;-73
2023/04/08 00:28:03;;;;;;;11.20;6.93;;;;;;;;;;5282528;28;20017;-73
2023/04/08 00:30:35;;;;;;;11.18;6.55;;;;;;;;;;5282429;28;20021;-73
2023/04/08 00:33:07;;;;;;;14.50;7.78;;;;;;;;;;5281731;28;20281;-73
2023/04/08 00:35:38;;;;;;;15.10;7.32;;;;;;;;;;5281804;28;20036;-73
2023/04/08 00:38:10;;;;;;;11.48;8.25;;;;;;;;;;5281842;28;20035;-74
2023/04/08 00:40:41;;;;;;;11.70;7.43;;;;;;;;;;5281941;28;20033;-73
2023/04/08 00:43:12;;;;;;;14.57;8.27;;;;;;;;;;5282437;28;20048;-73
2023/04/08 00:45:44;;;;;;;12.48;7.68;;;;;;;;;;5280964;28;20096;-73
2023/04/08 00:48:15;;;;;;;11.90;8.75;;;;;;;;;;5282221;28;20031;-73
2023/04/08 00:50:46;;;;;;;19.38;9.38;;;;;;;;;;5281943;28;20471;-72
2023/04/08 00:53:18;;;;;;;13.73;9.23;;;;;;;;;;5281149;28;20035;-72
2023/04/08 00:55:49;;;;;;;17.73;9.55;;;;;;;;;;5281917;28;20024;-73
2023/04/08 00:58:20;;;;;;;14.95;9.07;;;;;;;;;;5282181;28;20096;-72
2023/04/08 01:00:57;;;;;;;16.70;9.10;;;;;;;;;;5281052;28;20025;-72
2023/04/08 01:03:46;;;;;;;14.38;8.52;;;;;;;;;;5282703;28;20025;-71
2023/04/08 01:06:25;;;;;;;14.93;9.27;;;;;;;;;;5281716;28;20031;-74
2023/04/08 01:08:58;;;;;;;16.05;9.60;;;;;;;;;;5281420;28;20470;-73
2023/04/08 01:11:31;;;;;;;15.85;9.80;;;;;;;;;;5282272;28;20067;-72
2023/04/08 01:14:05;;;;;;;18.33;10.70;;;;;;;;;;5281183;28;20551;-72
2023/04/08 01:16:39;;;;;;;21.05;11.13;;;;;;;;;;5281657;28;20017;-72
2023/04/08 01:19:13;;;;;;;15.35;11.15;;;;;;;;;;5281884;28;20021;-72
2023/04/08 01:21:45;;;;;;;16.73;11.90;;;;;;;;;;5280499;28;20036;-73
2023/04/08 01:24:21;;;;;;;14.70;11.05;;;;;;;;;;5282064;28;20516;-73
2023/04/08 01:26:52;;;;;;;20.48;13.05;;;;;;;;;;5281387;28;20020;-73
2023/04/08 01:29:25;;;;;;;16.75;11.80;;;;;;;;;;5281511;28;20039;-73
2023/04/08 01:31:56;;;;;;;21.67;13.55;;;;;;;;;;5281358;28;20099;-73
2023/04/08 01:34:28;;;;;;;17.88;13.20;;;;;;;;;;5281251;28;20112;-74
2023/04/08 01:37:01;;;;;;;22.08;13.02;;;;;;;;;;5281380;28;20062;-72
2023/04/08 01:39:32;;;;;;;17.10;12.88;;;;;;;;;;5281778;28;20417;-73
2023/04/08 01:42:04;;;;;;;21.48;13.57;;;;;;;;;;5280652;28;20028;-73
2023/04/08 01:44:35;;;;;;;23.30;14.57;;;;;;;;;;5281632;28;20124;-73
2023/04/08 01:47:07;;;;;;;22.02;13.40;;;;;;;;;;5281209;28;20040;-72
2023/04/08 01:49:39;;;;;;;20.83;13.93;;;;;;;;;;5280265;28;20017;-73
2023/04/08 01:52:11;;;;;;;22.17;15.00;;;;;;;;;;5281872;28;20470;-72
2023/04/08 01:54:42;;;;;;;18.70;13.18;;;;;;;;;;5281127;28;20066;-72
2023/04/08 01:57:16;;;;;;;20.25;13.85;;;;;;;;;;5281121;28;20040;-72
2023/04/08 01:59:50;;;;;;;19.30;13.48;;;;;;;;;;5281141;28;20033;-73
2023/04/08 02:02:22;;;;;;;22.25;14.48;;;;;;;;;;5281747;28;20059;-72
2023/04/08 02:04:54;;;;;;;21.63;14.90;;;;;;;;;;5282269;28;20025;-73
2023/04/08 02:07:25;;;;;;;20.55;14.65;;;;;;;;;;5285581;28;20021;-74
2023/04/08 02:09:56;;;;;;;22.38;15.32;;;;;;;;;;5284339;28;20036;-74
2023/04/08 02:12:27;;;;;;;22.95;14.05;;;;;;;;;;5267263;28;20038;-73
2023/04/08 02:14:59;;;;;;;20.85;14.30;;;;;;;;;;5284493;28;20028;-72
2023/04/08 02:17:45;;;;;;;19.90;15.48;;;;;;;;;;5283882;28;20020;-74
2023/04/08 02:20:16;;;;;;;22.88;14.90;;;;;;;;;;5285334;28;20494;-73
2023/04/08 02:22:52;;;;;;;21.72;15.48;;;;;;;;;;5284652;28;20036;-73
2023/04/08 02:25:24;;;;;;;22.27;15.40;;;;;;;;;;5284394;28;20380;-73
2023/04/08 02:27:55;;;;;;;22.88;15.45;;;;;;;;;;5284404;28;20027;-72
2023/04/08 02:30:27;;;;;;;22.45;16.42;;;;;;;;;;5285026;28;20032;-72
2023/04/08 02:33:00;;;;;;;21.98;15.98;;;;;;;;;;5283481;28;20096;-71
2023/04/08 02:35:31;;;;;;;23.05;15.88;;;;;;;;;;5284569;28;20024;-73
2023/04/08 02:38:02;;;;;;;22.95;16.60;;;;;;;;;;5283737;28;20549;-72
2023/04/08 02:40:34;;;;;;;22.55;16.02;;;;;;;;;;5284466;28;20048;-72
2023/04/08 02:43:06;;;;;;;19.42;16.17;;;;;;;;;;5284478;28;20028;-72
2023/04/08 02:45:39;;;;;;;24.42;16.88;;;;;;;;;;5283680;28;20021;-72
2023/04/08 02:48:10;;;;;;;20.77;17.00;;;;;;;;;;5284668;28;20513;-72
2023/04/08 02:50:42;;;;;;;24.67;17.55;;;;;;;;;;5283860;28;20020;-72
2023/04/08 02:53:13;;;;;;;26.80;18.05;;;;;;;;;;5283746;28;20074;-73
2023/04/08 02:55:44;;;;;;;28.98;18.30;;;;;;;;;;5283930;28;20035;-73
2023/04/08 02:58:15;;;;;;;25.42;16.92;;;;;;;;;;5284651;28;20463;-72
2023/04/08 03:00:46;;;;;;;26.05;17.63;;;;;;;;;;5282902;28;20056;-72
2023/04/08 03:03:18;;;;;;;28.50;18.67;;;;;;;;;;5284400;28;20438;-72
2023/04/08 03:05:49;;;;;;;23.00;19.17;;;;;;;;;;5283652;28;20024;-73
2023/04/08 03:08:20;;;;;;;30.17;20.25;;;;;;;;;;5283980;28;20017;-72
2023/04/08 03:10:51;;;;;;;24.13;18.27;;;;;;;;;;5283780;28;20533;-73
2023/04/08 03:13:23;;;;;;;26.48;18.48;;;;;;;;;;5283469;28;20019;-72
2023/04/08 03:15:54;;;;;;;23.23;18.52;;;;;;;;;;5282989;28;20027;-72
2023/04/08 03:18:25;;;;;;;26.13;19.05;;;;;;;;;;5284171;28;20091;-72
2023/04/08 03:20:56;;;;;;;25.55;19.33;;;;;;;;;;5282387;28;20032;-72
2023/04/08 03:23:28;;;;;;;23.52;18.38;;;;;;;;;;5283782;28;20044;-72
2023/04/08 03:25:59;;;;;;;31.45;20.08;;;;;;;;;;5283367;28;20502;-72
2023/04/08 03:28:30;;;;;;;27.77;20.10;;;;;;;;;;5282664;28;20348;-72
2023/04/08 03:31:02;;;;;;;27.13;19.15;;;;;;;;;;5283541;28;20020;-72
2023/04/08 03:33:33;;;;;;;28.60;20.05;;;;;;;;;;5283302;28;20112;-72
2023/04/08 03:36:05;;;;;;;27.40;19.98;;;;;;;;;;5282582;28;20416;-72
2023/04/08 03:38:36;;;;;;;29.05;19.40;;;;;;;;;;5283241;28;20070;-72
2023/04/08 03:41:07;;;;;;;27.25;20.42;;;;;;;;;;5282697;28;20037;-73
2023/04/08 03:43:39;;;;;;;28.90;21.36;;;;;;;;;;5283139;28;20020;-72
2023/04/08 03:46:10;;;;;;;32.55;22.65;;;;;;;;;;5283461;28;20016;-72
2023/04/08 03:48:41;;;;;;;30.98;21.85;;;;;;;;;;5282087;28;20375;-72
2023/04/08 03:51:12;;;;;;;32.08;21.77;;;;;;;;;;5283519;28;20017;-72
2023/04/08 03:53:44;;;;;;;32.42;21.63;;;;;;;;;;5283249;28;20012;-72
2023/04/08 03:56:15;;;;;;;30.30;19.77;;;;;;;;;;5282857;28;20036;-72
2023/04/08 03:58:46;;;;;;;30.52;20.23;;;;;;;;;;5282591;28;20021;-72
2023/04/08 04:01:17;;;;;;;32.25;21.80;;;;;;;;;;5283077;28;20073;-72
2023/04/08 04:03:48;;;;;;;30.00;21.23;;;;;;;;;;5281508;28;20099;-72
2023/04/08 04:06:20;;;;;;;29.98;20.10;;;;;;;;;;5282967;28;20016;-72
2023/04/08 04:08:52;;;;;;;29.58;21.00;;;;;;;;;;5282362;28;20477;-72
2023/04/08 04:11:23;;;;;;;28.30;20.17;;;;;;;;;;5282307;28;20020;-72
2023/04/08 04:13:55;;;;;;;32.33;22.20;;;;;;;;;;5282158;28;20493;-71
2023/04/08 04:16:26;;;;;;;30.60;21.63;;;;;;;;;;5282144;28;20455;-72
2023/04/08 04:18:57;;;;;;;31.98;20.83;;;;;;;;;;5282314;28;20090;-71
2023/04/08 04:21:28;;;;;;;31.25;22.25;;;;;;;;;;5282730;28;20021;-72
2023/04/08 04:23:59;;;;;;;33.38;21.98;;;;;;;;;;5281715;28;20100;-71
2023/04/08 04:26:30;;;;;;;36.65;22.65;;;;;;;;;;5281699;28;20024;-71
2023/04/08 04:29:01;;;;;;;32.55;22.02;;;;;;;;;;5282535;28;20381;-71
2023/04/08 04:31:33;;;;;;;33.72;21.70;;;;;;;;;;5281963;28;20063;-72
2023/04/08 04:34:04;;;;;;;31.60;23.73;;;;;;;;;;5282361;28;20016;-72
2023/04/08 04:36:35;;;;;;;33.72;21.95;;;;;;;;;;5282135;28;20054;-72
2023/04/08 04:39:07;;;;;;;35.33;22.98;;;;;;;;;;5281386;28;20033;-71
2023/04/08 04:41:39;;;;;;;36.26;24.10;;;;;;;;;;5281744;28;20024;-73
2023/04/08 04:44:10;;;;;;;38.13;22.63;;;;;;;;;;5282683;28;20025;-71
2023/04/08 04:46:42;;;;;;;42.22;22.80;;;;;;;;;;5281137;28;20027;-71
2023/04/08 04:49:13;;;;;;;34.35;22.30;;;;;;;;;;5282508;28;20024;-71
2023/04/08 04:51:44;;;;;;;38.70;24.42;;;;;;;;;;5280931;28;20023;-71
2023/04/08 04:54:15;;;;;;;36.53;23.65;;;;;;;;;;5282332;28;20019;-72
2023/04/08 04:56:46;;;;;;;36.95;24.50;;;;;;;;;;5281307;28;20020;-71
2023/04/08 04:59:17;;;;;;;47.15;28.42;;;;;;;;;;5281533;28;20027;-71
2023/04/08 05:01:49;;;;;;;43.50;25.95;;;;;;;;;;5281635;28;20123;-72
2023/04/08 05:04:20;;;;;;;49.30;25.70;;;;;;;;;;5281911;28;20024;-72
2023/04/08 05:06:51;;;;;;;44.90;24.82;;;;;;;;;;5280733;28;20451;-72
2023/04/08 05:09:22;;;;;;;41.92;24.73;;;;;;;;;;5282063;28;20479;-72
2023/04/08 05:11:53;;;;;;;39.17;24.77;;;;;;;;;;5281302;28;20028;-73
2023/04/08 05:14:27;;;;;;;33.72;23.80;;;;;;;;;;5280908;28;20078;-72
2023/04/08 05:16:58;;;;;;;35.53;23.83;;;;;;;;;;5281318;28;20016;-72
2023/04/08 05:19:29;;;;;;;34.20;22.42;;;;;;;;;;5280713;28;20047;-72
2023/04/08 05:22:01;;;;;;;30.52;21.45;;;;;;;;;;5281502;28;20052;-71
2023/04/08 05:24:32;;;;;;;30.65;21.45;;;;;;;;;;5281544;28;20103;-72
2023/04/08 05:27:03;;;;;;;28.05;19.88;;;;;;;;;;5280916;28;20074;-72
2023/04/08 05:29:34;;;;;;;26.75;20.63;;;;;;;;;;5281758;28;20027;-71
2023/04/08 05:32:06;;;;;;;28.52;20.75;;;;;;;;;;5281309;28;20107;-71
2023/04/08 05:34:37;;;;;;;32.28;21.13;;;;;;;;;;5280550;28;20020;-72
2023/04/08 05:37:08;;;;;;;28.67;19.55;;;;;;;;;;5280662;28;20536;-71
2023/04/08 05:39:39;;;;;;;27.02;20.42;;;;;;;;;;5284186;28;20081;-72
2023/04/08 05:42:12;;;;;;;25.33;19.67;;;;;;;;;;5285229;28;20047;-72
2023/04/08 05:44:43;;;;;;;23.88;18.92;;;;;;;;;;5285423;28;20016;-72
2023/04/08 05:47:15;;;;;;;27.13;20.08;;;;;;;;;;5285567;28;20051;-71
2023/04/08 05:49:46;;;;;;;25.80;19.00;;;;;;;;;;5284222;28;20349;-72
2023/04/08 05:52:17;;;;;;;26.16;18.74;;;;;;;;;;5285578;28;20021;-72
2023/04/08 05:54:48;;;;;;;27.17;19.13;;;;;;;;;;5284468;28;20036;-72
2023/04/08 05:57:20;;;;;;;25.65;19.88;;;;;;;;;;5285637;28;20015;-71
2023/04/08 05:59:52;;;;;;;25.60;20.55;;;;;;;;;;5284818;28;20089;-72
2023/04/08 06:02:23;;;;;;;30.48;19.65;;;;;;;;;;5284669;28;20405;-72
2023/04/08 06:04:54;;;;;;;28.40;19.63;;;;;;;;;;5284978;28;20016;-72
2023/04/08 06:07:25;;;;;;;27.45;18.75;;;;;;;;;;5285261;28;20016;-72
2023/04/08 06:09:57;;;;;;;22.90;19.27;;;;;;;;;;5284143;28;20391;-72
2023/04/08 06:12:28;;;;;;;27.95;20.52;;;;;;;;;;5285398;28;20060;-72
2023/04/08 06:14:59;;;;;;;28.10;22.15;;;;;;;;;;5284576;28;20028;-72
2023/04/08 06:17:30;;;;;;;28.27;20.60;;;;;;;;;;5284174;28;20104;-72
2023/04/08 06:20:02;;;;;;;28.20;20.98;;;;;;;;;;5284996;28;20050;-71
2023/04/08 06:22:34;;;;;;;22.55;18.27;;;;;;;;;;5284664;28;20029;-72
2023/04/08 06:25:06;;;;;;;25.98;19.48;;;;;;;;;;5283911;28;20371;-71
2023/04/08 06:27:37;;;;;;;28.67;21.08;;;;;;;;;;5284505;28;20024;-73
2023/04/08 06:30:08;;;;;;;24.40;19.58;;;;;;;;;;5284226;28;20089;-72
2023/04/08 06:32:40;;;;;;;22.40;17.88;;;;;;;;;;5284388;28;20012;-74
2023/04/08 06:35:11;;;;;;;23.45;17.92;;;;;;;;;;5285053;28;20031;-73
2023/04/08 06:37:43;;;;;;;16.65;14.15;;;;;;;;;;5283369;28;20031;-73
2023/04/08 06:40:14;;;;;;;15.63;13.13;;;;;;;;;;5284723;28;20064;-73
2023/04/08 06:42:45;;;;;;;14.93;11.88;;;;;;;;;;5284319;28;20031;-73
2023/04/08 06:45:18;;;;;;;14.45;12.95;;;;;;;;;;5283854;28;20141;-73
2023/04/08 06:47:49;;;;;;;15.07;12.07;;;;;;;;;;5284033;28;20039;-73
2023/04/08 06:50:20;;;;;;;15.00;12.55;;;;;;;;;;5281252;28;20459;-71
2023/04/08 06:52:51;;;;;;;14.43;12.40;;;;;;;;;;5282700;28;20066;-70
2023/04/08 06:55:22;;;;;;;15.60;13.90;;;;;;;;;;5283558;28;20023;-71
2023/04/08 06:57:54;;;;;;;16.32;14.16;;;;;;;;;;5283396;28;20180;-72
2023/04/08 07:00:25;;;;;;;14.95;13.35;;;;;;;;;;5282203;28;20024;-71
2023/04/08 07:02:56;;;;;;;16.45;14.27;;;;;;;;;;5282454;28;20572;-71
2023/04/08 07:05:27;;;;;;;15.55;13.93;;;;;;;;;;5281947;28;20097;-71
2023/04/08 07:07:58;;;;;;;17.34;14.80;;;;;;;;;;5280254;28;20017;-71
2023/04/08 07:10:30;;;;;;;16.83;15.13;;;;;;;;;;5283521;28;20017;-71
2023/04/08 07:13:02;;;;;;;17.38;14.73;;;;;;;;;;5264540;28;20135;-70
2023/04/08 07:15:34;;;;;;;16.00;13.13;;;;;;;;;;5283402;28;20024;-72
2023/04/08 07:18:05;;;;;;;16.75;14.95;;;;;;;;;;5282472;28;20071;-71
2023/04/08 07:20:37;;;;;;;16.10;13.55;;;;;;;;;;5281775;28;20400;-71
2023/04/08 07:23:08;;;;;;;16.23;13.38;;;;;;;;;;5281995;28;20037;-71
2023/04/08 07:25:39;;;;;;;14.07;12.63;;;;;;;;;;5283308;28;20423;-72
2023/04/08 07:28:10;;;;;;;16.05;13.80;;;;;;;;;;5282890;28;20096;-72
2023/04/08 07:30:42;;;;;;;16.70;14.93;;;;;;;;;;5283281;28;20028;-71
2023/04/08 07:33:14;;;;;;;16.17;14.15;;;;;;;;;;5283290;28;20023;-72
2023/04/08 07:35:45;;;;;;;16.38;14.55;;;;;;;;;;5282923;28;20029;-67
2023/04/08 07:38:17;;;;;;;15.60;13.82;;;;;;;;;;5283248;28;20051;-68
2023/04/08 07:40:48;;;;;;;14.75;13.25;;;;;;;;;;5282574;28;20438;-71
2023/04/08 07:43:19;;;;;;;17.27;14.65;;;;;;;;;;5283574;28;20281;-71
2023/04/08 07:45:50;;;;;;;16.55;14.05;;;;;;;;;;5282802;28;20534;-71
2023/04/08 07:48:22;;;;;;;15.63;13.98;;;;;;;;;;5282639;28;20020;-71
2023/04/08 07:50:53;;;;;;;16.52;14.48;;;;;;;;;;5282769;28;20070;-70
2023/04/08 07:53:25;;;;;;;15.77;14.07;;;;;;;;;;5282761;28;20059;-71
2023/04/08 07:55:56;;;;;;;15.88;14.18;;;;;;;;;;5281774;28;20044;-71
2023/04/08 07:58:27;;;;;;;15.18;13.57;;;;;;;;;;5283293;28;20055;-71
2023/04/08 08:00:58;;;;;;;16.15;14.15;;;;;;;;;;5282736;28;20032;-70
2023/04/08 08:03:30;;;;;;;15.25;13.70;;;;;;;;;;5281925;28;20275;-71
2023/04/08 08:06:01;;;;;;;17.40;14.93;;;;;;;;;;5282778;28;20247;-71
2023/04/08 08:08:34;;;;;;;14.85;13.23;;;;;;;;;;5281938;28;20021;-71
2023/04/08 08:11:07;;;;;;;15.05;13.55;;;;;;;;;;5282707;28;20029;-70
2023/04/08 08:13:39;;;;;;;14.75;13.23;;;;;;;;;;5282287;28;20013;-71
2023/04/08 08:16:10;;;;;;;15.02;13.10;;;;;;;;;;5282258;28;20078;-70
2023/04/08 08:18:41;;;;;;;15.63;13.38;;;;;;;;;;5282157;28;20024;-71
2023/04/08 08:21:13;;;;;;;17.40;15.52;;;;;;;;;;5282739;28;20474;-71
2023/04/08 08:23:45;;;;;;;17.50;15.68;;;;;;;;;;5280970;28;20044;-70
2023/04/08 08:26:16;;;;;;;17.98;16.08;;;;;;;;;;5282546;28;20344;-71
2023/04/08 08:28:47;;;;;;;15.52;13.95;;;;;;;;;;5282276;28;20048;-71
2023/04/08 08:31:18;;;;;;;16.25;14.55;;;;;;;;;;5282082;28;20100;-71
2023/04/08 08:33:49;;;;;;;14.95;13.40;;;;;;;;;;5282159;28;20255;-70
2023/04/08 08:36:21;;;;;;;17.13;15.13;;;;;;;;;;5282847;28;20031;-70
2023/04/08 08:38:53;;;;;;;16.98;15.15;;;;;;;;;;5281014;28;20021;-70
2023/04/08 08:41:24;;;;;;;16.58;14.80;;;;;;;;;;5282264;28;20103;-71
2023/04/08 08:43:56;;;;;;;16.98;14.60;;;;;;;;;;5280885;28;20032;-72
2023/04/08 08:46:27;;;;;;;16.00;14.35;;;;;;;;;;5282544;28;20478;-72
2023/04/08 08:48:58;;;;;;;18.40;16.42;;;;;;;;;;5281648;28;20028;-71
2023/04/08 08:51:31;;;;;;;19.23;16.02;;;;;;;;;;5281370;28;20050;-71
2023/04/08 08:54:03;;;;;;;17.58;15.13;;;;;;;;;;5281748;28;20027;-71
2023/04/08 08:56:34;;;;;;;17.48;15.07;;;;;;;;;;5281883;28;20526;-72
2023/04/08 08:59:05;;;;;;;16.27;14.45;;;;;;;;;;5280952;28;20494;-72
2023/04/08 09:01:37;;;;;;;17.00;15.20;;;;;;;;;;5281695;28;20081;-72
2023/04/08 09:04:09;;;;;;;17.65;15.70;;;;;;;;;;5282187;28;20363;-71
2023/04/08 09:06:40;;;;;;;19.73;16.17;;;;;;;;;;5280463;28;20077;-72
2023/04/08 09:09:11;;;;;;;18.05;15.77;;;;;;;;;;5281767;28;20471;-72
2023/04/08 09:11:44;;;;;;;18.08;16.17;;;;;;;;;;5280527;28;20020;-72
2023/04/08 09:14:23;;;;;;;18.10;16.17;;;;;;;;;;5280888;28;20028;-71
2023/04/08 09:16:54;;;;;;;21.85;17.67;;;;;;;;;;5281688;28;20016;-71
2023/04/08 09:19:25;;;;;;;19.80;17.20;;;;;;;;;;5281111;28;20029;-71
2023/04/08 09:22:03;;;;;;;20.83;16.98;;;;;;;;;;5281173;28;20051;-71
2023/04/08 09:24:35;;;;;;;20.60;18.42;;;;;;;;;;5280345;28;20417;-71
2023/04/08 09:27:07;;;;;;;20.95;18.10;;;;;;;;;;5281057;28;20009;-71
2023/04/08 09:29:38;;;;;;;22.02;19.48;;;;;;;;;;5281327;28;20406;-72
2023/04/08 09:32:09;;;;;;;25.83;20.20;;;;;;;;;;5282020;28;20017;-71
2023/04/08 09:34:40;;;;;;;21.73;17.92;;;;;;;;;;5280617;28;20532;-71
2023/04/08 09:37:12;;;;;;;23.15;19.60;;;;;;;;;;5281844;28;20101;-70
2023/04/08 09:39:43;;;;;;;19.15;17.15;;;;;;;;;;5280145;28;20040;-71
2023/04/08 09:42:14;;;;;;;20.98;18.33;;;;;;;;;;5281887;28;20379;-70
2023/04/08 09:44:46;;;;;;;20.75;17.77;;;;;;;;;;5281064;28;20035;-70
2023/04/08 09:47:23;;;;;;;22.52;19.85;;;;;;;;;;5280953;28;20013;-69
2023/04/08 09:49:57;;;;;;;20.77;17.95;;;;;;;;;;5281078;28;20027;-70
2023/04/08 09:52:44;;;;;;;17.90;16.00;;;;;;;;;;5281715;28;20107;-70
2023/04/08 09:55:16;;;;;;;17.50;15.70;;;;;;;;;;5280777;28;20653;-71
2023/04/08 09:57:54;;;;;;;16.15;14.50;;;;;;;;;;5280849;28;20595;-71
2023/04/08 10:00:35;;;;;;;19.17;17.20;;;;;;;;;;5281499;28;20036;-70
2023/04/08 10:03:06;;;;;;;16.92;15.27;;;;;;;;;;5280558;28;20025;-70
2023/04/08 10:05:39;;;;;;;15.27;13.70;;;;;;;;;;5280696;28;20020;-70
2023/04/08 10:08:11;;;;;;;16.55;14.95;;;;;;;;;;5280544;28;20557;-70
2023/04/08 10:10:43;;;;;;;16.67;14.98;;;;;;;;;;5281008;28;20106;-71
2023/04/08 10:13:14;;;;;;;14.40;12.90;;;;;;;;;;5281631;28;20048;-71
2023/04/08 10:15:47;;;;;;;15.70;14.18;;;;;;;;;;5279884;28;20500;-71
2023/04/08 10:18:29;;;;;;;16.05;14.50;;;;;;;;;;5280989;28;20008;-72
2023/04/08 10:21:01;;;;;;;15.40;13.93;;;;;;;;;;5280834;28;20379;-70
2023/04/08 10:23:50;;;;;;;16.08;14.52;;;;;;;;;;5279951;28;20047;-70
2023/04/08 10:26:32;;;;;;;16.70;15.13;;;;;;;;;;5283750;28;20028;-71
2023/04/08 10:29:23;;;;;;;15.77;14.20;;;;;;;;;;5283775;28;20021;-73
2023/04/08 10:31:56;;;;;;;15.93;14.43;;;;;;;;;;5284178;28;20100;-71
2023/04/08 10:34:27;;;;;;;15.18;13.77;;;;;;;;;;5284544;28;20016;-73
2023/04/08 10:37:00;;;;;;;14.73;13.43;;;;;;;;;;5283928;28;20522;-71
2023/04/08 10:39:32;;;;;;;15.57;14.10;;;;;;;;;;5284281;28;20060;-73
2023/04/08 10:42:07;;;;;;;14.15;12.85;;;;;;;;;;5284827;28;20043;-71
2023/04/08 10:44:43;;;;;;;15.95;14.50;;;;;;;;;;5283504;28;20455;-72
2023/04/08 10:47:14;;;;;;;15.55;14.05;;;;;;;;;;5284829;28;20013;-72
2023/04/08 10:49:46;;;;;;;15.23;13.73;;;;;;;;;;5283831;28;20027;-72
2023/04/08 10:52:18;;;;;;;16.10;14.50;;;;;;;;;;5283778;28;20092;-72
2023/04/08 10:54:50;;;;;;;15.57;14.07;;;;;;;;;;5283655;28;20020;-72
2023/04/08 10:57:24;;;;;;;16.25;14.75;;;;;;;;;;5283580;28;20844;-71
2023/04/08 10:59:55;;;;;;;15.80;14.32;;;;;;;;;;5283429;28;20533;-71
2023/04/08 11:02:31;;;;;;;14.93;13.52;;;;;;;;;;5284004;28;20025;-71
2023/04/08 11:05:03;;;;;;;14.85;13.48;;;;;;;;;;5283280;28;20119;-71
2023/04/08 11:07:38;;;;;;;14.35;12.88;;;;;;;;;;5284093;28;20502;-72
2023/04/08 11:10:10;;;;;;;13.98;12.70;;;;;;;;;;5283973;28;20032;-71
2023/04/08 11:12:42;;;;;;;15.82;14.23;;;;;;;;;;5282584;28;20012;-72
2023/04/08 11:15:13;;;;;;;15.25;13.85;;;;;;;;;;5284053;28;20032;-72
2023/04/08 11:17:46;;;;;;;15.98;14.38;;;;;;;;;;5283727;28;20056;-72
2023/04/08 11:20:17;;;;;;;14.98;13.57;;;;;;;;;;5283142;28;20031;-71
2023/04/08 11:22:49;;;;;;;14.25;12.95;;;;;;;;;;5282720;28;20496;-71
2023/04/08 11:25:20;;;;;;;15.48;14.00;;;;;;;;;;5282913;28;20020;-72
2023/04/08 11:27:52;;;;;;;14.98;13.57;;;;;;;;;;5280634;28;20383;-72
2023/04/08 11:30:23;;;;;;;14.48;13.13;;;;;;;;;;5283804;28;20054;-72
2023/04/08 11:32:55;;;;;;;15.13;13.75;;;;;;;;;;5282194;28;20051;-72
2023/04/08 11:35:32;;;;;;;13.45;12.25;;;;;;;;;;5282930;28;20463;-72
2023/04/08 11:38:04;;;;;;;14.07;12.90;;;;;;;;;;5281405;28;20336;-72
2023/04/08 11:40:35;;;;;;;15.27;13.90;;;;;;;;;;5281263;28;20032;-72
2023/04/08 11:43:10;;;;;;;15.40;14.00;;;;;;;;;;5282412;28;20088;-73
2023/04/08 11:45:41;;;;;;;15.40;14.00;;;;;;;;;;5282696;28;20116;-72
2023/04/08 11:48:14;;;;;;;14.73;13.25;;;;;;;;;;5282486;28;20348;-72
2023/04/08 11:50:45;;;;;;;15.15;13.82;;;;;;;;;;5282577;28;20056;-72
2023/04/08 11:53:17;;;;;;;12.90;11.65;;;;;;;;;;5282823;28;20544;-71
2023/04/08 11:55:48;;;;;;;14.30;13.02;;;;;;;;;;5281686;28;20089;-71
2023/04/08 11:58:19;;;;;;;14.80;13.50;;;;;;;;;;5283204;28;20013;-71
2023/04/08 12:00:51;;;;;;;12.90;11.70;;;;;;;;;;5281005;28;20028;-71
2023/04/08 12:03:22;;;;;;;14.43;13.05;;;;;;;;;;5283050;28;20347;-71
2023/04/08 12:05:53;;;;;;;14.87;13.47;;;;;;;;;;5282373;28;20017;-70
2023/04/08 12:08:24;;;;;;;14.15;12.93;;;;;;;;;;5281942;28;20269;-71
2023/04/08 12:10:56;;;;;;;14.98;13.45;;;;;;;;;;5281881;28;20020;-72
2023/04/08 12:13:27;;;;;;;13.88;12.57;;;;;;;;;;5282864;28;20071;-73
2023/04/08 12:15:58;;;;;;;14.63;13.32;;;;;;;;;;5281500;28;20059;-73
2023/04/08 12:18:29;;;;;;;14.63;13.37;;;;;;;;;;5282705;28;20428;-73
2023/04/08 12:21:01;;;;;;;12.77;11.60;;;;;;;;;;5282318;28;20337;-73
2023/04/08 12:23:32;;;;;;;11.25;10.25;;;;;;;;;;5281477;28;20365;-73
2023/04/08 12:26:03;;;;;;;12.48;11.27;;;;;;;;;;5282555;28;20016;-72
2023/04/08 12:28:35;;;;;;;12.13;11.02;;;;;;;;;;5281568;28;20047;-73
2023/04/08 12:31:06;;;;;;;11.68;10.68;;;;;;;;;;5282268;28;20028;-72
2023/04/08 12:33:37;;;;;;;12.18;11.07;;;;;;;;;;5282239;28;20013;-73
2023/04/08 12:36:08;;;;;;;12.43;11.32;;;;;;;;;;5276999;28;20028;-72
2023/04/08 12:38:40;;;;;;;13.00;11.80;;;;;;;;;;5271999;28;20043;-73
2023/04/08 12:41:11;;;;;;;12.18;11.13;;;;;;;;;;5281190;28;20078;-73
2023/04/08 12:43:42;;;;;;;11.88;10.73;;;;;;;;;;5278695;28;20061;-71
2023/04/08 12:46:13;;;;;;;10.73;9.73;;;;;;;;;;5280956;28;20020;-72
2023/04/08 12:48:44;;;;;;;10.80;9.87;;;;;;;;;;5276838;28;20166;-70
2023/04/08 12:51:17;;;;;;;12.77;11.57;;;;;;;;;;5280465;28;20263;-69
2023/04/08 12:53:48;;;;;;;11.40;10.40;;;;;;;;;;5280154;28;20040;-70
2023/04/08 12:56:20;;;;;;;9.98;9.00;;;;;;;;;;5281265;28;20044;-68
2023/04/08 12:58:51;;;;;;;10.07;9.18;;;;;;;;;;5278547;28;20020;-68
2023/04/08 13:01:22;;;;;;;10.65;9.75;;;;;;;;;;5279704;28;20027;-72
2023/04/08 13:03:54;;;;;;;10.77;9.82;;;;;;;;;;5279671;28;20013;-72
2023/04/08 13:06:26;;;;;;;10.55;9.55;;;;;;;;;;5280078;28;20099;-72
2023/04/08 13:08:57;;;;;;;10.10;9.20;;;;;;;;;;5280188;28;20483;-72
2023/04/08 13:11:28;;;;;;;10.90;9.80;;;;;;;;;;5281081;28;20067;-72
2023/04/08 13:14:00;;;;;;;11.40;10.35;;;;;;;;;;5281838;28;20016;-72
2023/04/08 13:16:31;;;;;;;9.75;8.85;;;;;;;;;;5281745;28;20044;-72
2023/04/08 13:19:02;;;;;;;9.43;8.52;;;;;;;;;;5281156;28;20028;-71
2023/04/08 13:21:33;;;;;;;8.87;8.07;;;;;;;;;;5281642;28;20021;-72
2023/04/08 13:24:04;;;;;;;9.60;8.67;;;;;;;;;;5281535;28;20312;-72
2023/04/08 13:26:36;;;;;;;10.27;9.27;;;;;;;;;;5280867;28;20274;-72
2023/04/08 13:29:07;;;;;;;10.80;8.80;;;;;;;;;;5281750;28;20066;-72
2023/04/08 13:31:38;;;;;;;11.40;10.27;;;;;;;;;;5281141;28;20021;-72
2023/04/08 13:34:09;;;;;;;9.80;8.90;;;;;;;;;;5280998;28;20253;-72
2023/04/08 13:36:41;;;;;;;9.07;8.15;;;;;;;;;;5281184;28;20282;-72
2023/04/08 13:39:12;;;;;;;10.52;9.52;;;;;;;;;;5281057;28;20307;-71
2023/04/08 13:41:43;;;;;;;11.55;10.50;;;;;;;;;;5281223;28;20021;-72
2023/04/08 13:44:16;;;;;;;10.93;9.82;;;;;;;;;;5281813;28;20024;-71
2023/04/08 13:46:47;;;;;;;11.15;10.15;;;;;;;;;;5279982;28;20273;-72
2023/04/08 13:49:19;;;;;;;11.17;10.07;;;;;;;;;;5281077;28;20032;-72
2023/04/08 13:51:50;;;;;;;11.23;10.13;;;;;;;;;;5281363;28;20763;-73
2023/04/08 13:54:21;;;;;;;12.07;10.97;;;;;;;;;;5280864;28;20020;-71
2023/04/08 13:56:52;;;;;;;11.48;10.32;;;;;;;;;;5280930;28;20286;-73
2023/04/08 13:59:24;;;;;;;12.10;10.18;;;;;;;;;;5281411;28;20047;-73
2023/04/08 14:01:55;;;;;;;10.48;9.38;;;;;;;;;;5282651;28;20278;-73
2023/04/08 14:04:26;;;;;;;9.70;8.80;;;;;;;;;;5282984;28;20024;-72
2023/04/08 14:06:57;;;;;;;9.95;9.05;;;;;;;;;;5282223;28;20021;-73
2023/04/08 14:09:29;;;;;;;10.68;9.68;;;;;;;;;;5282800;28;20255;-72
2023/04/08 14:12:00;;;;;;;11.35;10.35;;;;;;;;;;5282457;28;20020;-74
2023/04/08 14:14:32;;;;;;;12.52;11.32;;;;;;;;;;5281964;28;20463;-74
2023/04/08 14:17:03;;;;;;;12.57;11.23;;;;;;;;;;5282905;28;20063;-73
2023/04/08 14:19:34;;;;;;;11.00;9.13;;;;;;;;;;5282939;28;20118;-73
2023/04/08 14:22:06;;;;;;;10.85;9.75;;;;;;;;;;5282105;28;20303;-71
2023/04/08 14:24:37;;;;;;;10.95;9.95;;;;;;;;;;5282961;28;20017;-73
2023/04/08 14:27:08;;;;;;;11.07;9.98;;;;;;;;;;5283447;28;20016;-71
2023/04/08 14:29:39;;;;;;;10.15;9.23;;;;;;;;;;5283736;28;20013;-73
2023/04/08 14:32:11;;;;;;;12.18;10.98;;;;;;;;;;5284933;28;20107;-73
2023/04/08 14:34:42;;;;;;;12.18;10.68;;;;;;;;;;5284133;28;20027;-74
2023/04/08 14:37:13;;;;;;;12.23;11.13;;;;;;;;;;5284483;28;20051;-74
2023/04/08 14:39:45;;;;;;;12.77;11.50;;;;;;;;;;5284090;28;20840;-73
2023/04/08 14:42:17;;;;;;;11.45;10.25;;;;;;;;;;5283891;28;20414;-75
2023/04/08 14:44:48;;;;;;;9.18;8.30;;;;;;;;;;5284265;28;20031;-74